NSZ3871 LMML-EKBI
Flight info
| Callsign | NSZ3871 |
|---|---|
| Flight time | 2h 57m |
| Altitude | 37000 |
| Route | GZO M622 ADEXI/N0437F340 DCT ROTUN/N0438F360 DCT ELVIN DCT GIKIN DCT UPONO DCT OKBIS DCT VERUN DCT GAVRA DCT BAGNO DCT PELEG DCT SUKOM DCT LUMAV DCT ALBET DCT VADIK DCT DIKEM DCT SUMIR DCT NAXAV DCT EKPIS DCT BRENO DCT KONIN DCT KEMES M726 ANELA DCT KUMER DCT ELSOB/N0440F370 Y348 OMWEG M105 AMRAK DCT LOKSA |
| Aircraft | A320/M-SDE3FGHIRWY/LB1 |
Departure
| Time | 2026-05-06 21:12 |
|---|---|
| Airport | Malta International Airport (LMML) |
Arrival
| Time | 2026-05-07 00:09 |
|---|---|
| Airport | Billund Airport (EKBI) |
| Time | Latitude | Longitude | Altitude | Speed | Heading |
|---|---|---|---|---|---|
| 2026-05-06 20:45 | 35.84911 | 14.49395 | 259 ft | 0 kts | 359° |
| 2026-05-06 21:01 | 35.84895 | 14.49395 | 259 ft | 4 kts | 354° |
| 2026-05-06 21:01 | 35.84869 | 14.49401 | 259 ft | 4 kts | 340° |
| 2026-05-06 21:01 | 35.84846 | 14.49414 | 259 ft | 1 kts | 327° |
| 2026-05-06 21:01 | 35.84842 | 14.49418 | 259 ft | 0 kts | 327° |
| 2026-05-06 21:05 | 35.84843 | 14.49417 | 259 ft | 1 kts | 327° |
| 2026-05-06 21:05 | 35.84847 | 14.49407 | 259 ft | 2 kts | 294° |
| 2026-05-06 21:05 | 35.84858 | 14.49374 | 259 ft | 6 kts | 295° |
| 2026-05-06 21:05 | 35.84888 | 14.49325 | 259 ft | 8 kts | 313° |
| 2026-05-06 21:06 | 35.84927 | 14.49262 | 258 ft | 10 kts | 294° |
| 2026-05-06 21:06 | 35.84918 | 14.49174 | 258 ft | 12 kts | 230° |
| 2026-05-06 21:06 | 35.84913 | 14.49082 | 258 ft | 12 kts | 303° |
| 2026-05-06 21:06 | 35.84967 | 14.48993 | 259 ft | 14 kts | 297° |
| 2026-05-06 21:07 | 35.85021 | 14.48887 | 258 ft | 15 kts | 305° |
| 2026-05-06 21:07 | 35.85081 | 14.48786 | 263 ft | 14 kts | 306° |
| 2026-05-06 21:07 | 35.85133 | 14.48698 | 267 ft | 12 kts | 319° |
| 2026-05-06 21:07 | 35.85201 | 14.48648 | 270 ft | 11 kts | 332° |
| 2026-05-06 21:08 | 35.85249 | 14.48617 | 272 ft | 7 kts | 328° |
| 2026-05-06 21:08 | 35.85286 | 14.48572 | 272 ft | 8 kts | 315° |
| 2026-05-06 21:08 | 35.85321 | 14.48517 | 272 ft | 13 kts | 314° |
| 2026-05-06 21:08 | 35.85400 | 14.48454 | 272 ft | 14 kts | 318° |
| 2026-05-06 21:09 | 35.85473 | 14.48365 | 272 ft | 15 kts | 315° |
| 2026-05-06 21:09 | 35.85552 | 14.48266 | 272 ft | 16 kts | 315° |
| 2026-05-06 21:09 | 35.85631 | 14.48207 | 272 ft | 9 kts | 343° |
| 2026-05-06 21:09 | 35.85658 | 14.48138 | 272 ft | 11 kts | 273° |
| 2026-05-06 21:10 | 35.85658 | 14.48069 | 272 ft | 8 kts | 269° |
| 2026-05-06 21:10 | 35.85662 | 14.47996 | 272 ft | 9 kts | 293° |
| 2026-05-06 21:10 | 35.85642 | 14.47924 | 272 ft | 10 kts | 210° |
| 2026-05-06 21:10 | 35.85579 | 14.47956 | 272 ft | 11 kts | 137° |
| 2026-05-06 21:11 | 35.85523 | 14.48026 | 272 ft | 12 kts | 135° |
| 2026-05-06 21:11 | 35.85367 | 14.48222 | 272 ft | 63 kts | 134° |
| 2026-05-06 21:11 | 35.84923 | 14.48774 | 258 ft | 116 kts | 135° |
| 2026-05-06 21:11 | 35.84262 | 14.49599 | 398 ft | 143 kts | 133° |
| 2026-05-06 21:12 | 35.83584 | 14.50454 | 1042 ft | 139 kts | 134° |
| 2026-05-06 21:12 | 35.82851 | 14.51242 | 1570 ft | 148 kts | 147° |
| 2026-05-06 21:12 | 35.81794 | 14.51698 | 1757 ft | 178 kts | 168° |
| 2026-05-06 21:12 | 35.80443 | 14.51431 | 1988 ft | 221 kts | 198° |
| 2026-05-06 21:13 | 35.79210 | 14.50031 | 2359 ft | 264 kts | 229° |
| 2026-05-06 21:13 | 35.78262 | 14.48083 | 3236 ft | 266 kts | 232° |
| 2026-05-06 21:13 | 35.77330 | 14.46105 | 4110 ft | 267 kts | 233° |
| 2026-05-06 21:13 | 35.76389 | 14.44110 | 4744 ft | 271 kts | 234° |
| 2026-05-06 21:14 | 35.75438 | 14.42114 | 4935 ft | 269 kts | 234° |
| 2026-05-06 21:14 | 35.74608 | 14.40037 | 4990 ft | 273 kts | 246° |
| 2026-05-06 21:14 | 35.74223 | 14.37723 | 4991 ft | 281 kts | 262° |
| 2026-05-06 21:14 | 35.74405 | 14.35280 | 5451 ft | 293 kts | 279° |
| 2026-05-06 21:15 | 35.75155 | 14.32931 | 6327 ft | 299 kts | 295° |
| 2026-05-06 21:15 | 35.76452 | 14.30902 | 7102 ft | 306 kts | 314° |
| 2026-05-06 21:15 | 35.78234 | 14.29444 | 7916 ft | 310 kts | 334° |
| 2026-05-06 21:15 | 35.80323 | 14.28738 | 8683 ft | 315 kts | 352° |
| 2026-05-06 21:16 | 35.82511 | 14.28412 | 9412 ft | 318 kts | 347° |
| 2026-05-06 21:16 | 35.84662 | 14.27772 | 10095 ft | 320 kts | 340° |
| 2026-05-06 21:16 | 35.86866 | 14.26983 | 10290 ft | 341 kts | 340° |
| 2026-05-06 21:16 | 35.89179 | 14.26146 | 10505 ft | 359 kts | 340° |
| 2026-05-06 21:17 | 35.91603 | 14.25270 | 11020 ft | 366 kts | 340° |
| 2026-05-06 21:17 | 35.94057 | 14.24388 | 11653 ft | 369 kts | 340° |
| 2026-05-06 21:17 | 35.96530 | 14.23500 | 12325 ft | 371 kts | 339° |
| 2026-05-06 21:17 | 35.99014 | 14.22608 | 12986 ft | 373 kts | 339° |
| 2026-05-06 21:18 | 36.01497 | 14.21679 | 13657 ft | 374 kts | 338° |
| 2026-05-06 21:18 | 36.03988 | 14.20732 | 14254 ft | 376 kts | 338° |
| 2026-05-06 21:18 | 36.06501 | 14.19806 | 14825 ft | 378 kts | 338° |
| 2026-05-06 21:18 | 36.09031 | 14.18886 | 15401 ft | 380 kts | 338° |
| 2026-05-06 21:19 | 36.11572 | 14.17969 | 15966 ft | 381 kts | 338° |
| 2026-05-06 21:19 | 36.14123 | 14.17044 | 16524 ft | 383 kts | 338° |
| 2026-05-06 21:19 | 36.16686 | 14.16109 | 17067 ft | 386 kts | 338° |
| 2026-05-06 21:19 | 36.19274 | 14.15159 | 17602 ft | 389 kts | 338° |
| 2026-05-06 21:20 | 36.21876 | 14.14198 | 18164 ft | 391 kts | 338° |
| 2026-05-06 21:20 | 36.24490 | 14.13235 | 18647 ft | 393 kts | 338° |
| 2026-05-06 21:20 | 36.27121 | 14.12265 | 19150 ft | 395 kts | 338° |
| 2026-05-06 21:20 | 36.29760 | 14.11290 | 19662 ft | 397 kts | 338° |
| 2026-05-06 21:21 | 36.32416 | 14.10311 | 20169 ft | 399 kts | 338° |
| 2026-05-06 21:21 | 36.35078 | 14.09330 | 20658 ft | 400 kts | 338° |
| 2026-05-06 21:21 | 36.37756 | 14.08343 | 21132 ft | 402 kts | 338° |
| 2026-05-06 21:21 | 36.40444 | 14.07351 | 21617 ft | 404 kts | 339° |
| 2026-05-06 21:22 | 36.43120 | 14.06362 | 21965 ft | 409 kts | 339° |
| 2026-05-06 21:22 | 36.45857 | 14.05349 | 22382 ft | 412 kts | 339° |
| 2026-05-06 21:22 | 36.48606 | 14.04325 | 22792 ft | 414 kts | 339° |
| 2026-05-06 21:22 | 36.51378 | 14.03292 | 23227 ft | 417 kts | 339° |
| 2026-05-06 21:23 | 36.54159 | 14.02255 | 23613 ft | 419 kts | 339° |
| 2026-05-06 21:23 | 36.56956 | 14.01215 | 24007 ft | 420 kts | 339° |
| 2026-05-06 21:23 | 36.59755 | 14.00176 | 24437 ft | 419 kts | 339° |
| 2026-05-06 21:23 | 36.62552 | 13.99139 | 24866 ft | 419 kts | 339° |
| 2026-05-06 21:24 | 36.65343 | 13.98102 | 25306 ft | 419 kts | 339° |
| 2026-05-06 21:24 | 36.68140 | 13.97060 | 25684 ft | 420 kts | 338° |
| 2026-05-06 21:24 | 36.70937 | 13.96016 | 26094 ft | 420 kts | 338° |
| 2026-05-06 21:24 | 36.73732 | 13.94973 | 26501 ft | 419 kts | 338° |
| 2026-05-06 21:25 | 36.76528 | 13.93931 | 26893 ft | 419 kts | 338° |
| 2026-05-06 21:25 | 36.79322 | 13.92887 | 27309 ft | 419 kts | 337° |
| 2026-05-06 21:25 | 36.82113 | 13.91843 | 27729 ft | 419 kts | 337° |
| 2026-05-06 21:25 | 36.84904 | 13.90799 | 28147 ft | 419 kts | 337° |
| 2026-05-06 21:26 | 36.87694 | 13.89754 | 28569 ft | 418 kts | 336° |
| 2026-05-06 21:26 | 36.90483 | 13.88710 | 28996 ft | 419 kts | 336° |
| 2026-05-06 21:26 | 36.93282 | 13.87661 | 29340 ft | 420 kts | 336° |
| 2026-05-06 21:26 | 36.96071 | 13.86616 | 29845 ft | 418 kts | 336° |
| 2026-05-06 21:27 | 36.98842 | 13.85577 | 30343 ft | 414 kts | 335° |
| 2026-05-06 21:27 | 37.01557 | 13.84556 | 30783 ft | 412 kts | 335° |
| 2026-05-06 21:27 | 37.04297 | 13.83519 | 31178 ft | 410 kts | 334° |
| 2026-05-06 21:27 | 37.07024 | 13.82488 | 31592 ft | 409 kts | 334° |
| 2026-05-06 21:28 | 37.09742 | 13.81466 | 32028 ft | 407 kts | 333° |
| 2026-05-06 21:28 | 37.12450 | 13.80450 | 32461 ft | 405 kts | 333° |
| 2026-05-06 21:28 | 37.15139 | 13.79439 | 32935 ft | 403 kts | 332° |
| 2026-05-06 21:28 | 37.17817 | 13.78426 | 33352 ft | 401 kts | 331° |
| 2026-05-06 21:29 | 37.20478 | 13.77418 | 33808 ft | 398 kts | 331° |
| 2026-05-06 21:29 | 37.23125 | 13.76416 | 34192 ft | 396 kts | 331° |
| 2026-05-06 21:29 | 37.25760 | 13.75416 | 34435 ft | 396 kts | 330° |
| 2026-05-06 21:29 | 37.28396 | 13.74414 | 34743 ft | 395 kts | 330° |
| 2026-05-06 21:30 | 37.31025 | 13.73418 | 35057 ft | 394 kts | 330° |
| 2026-05-06 21:30 | 37.33646 | 13.72423 | 35343 ft | 393 kts | 330° |
| 2026-05-06 21:30 | 37.36265 | 13.71426 | 35620 ft | 393 kts | 330° |
| 2026-05-06 21:30 | 37.38879 | 13.70431 | 35889 ft | 392 kts | 330° |
| 2026-05-06 21:31 | 37.41494 | 13.69434 | 36182 ft | 392 kts | 330° |
| 2026-05-06 21:31 | 37.44106 | 13.68440 | 36450 ft | 392 kts | 330° |
| 2026-05-06 21:31 | 37.46682 | 13.67461 | 36706 ft | 392 kts | 330° |
| 2026-05-06 21:31 | 37.49291 | 13.66469 | 36942 ft | 393 kts | 330° |
| 2026-05-06 21:32 | 37.51917 | 13.65462 | 36999 ft | 397 kts | 330° |
| 2026-05-06 21:32 | 37.59906 | 13.62400 | 36999 ft | 402 kts | 331° |
| 2026-05-06 21:33 | 37.65286 | 13.60349 | 37003 ft | 404 kts | 331° |
| 2026-05-06 21:33 | 37.70657 | 13.58296 | 36998 ft | 402 kts | 331° |
| 2026-05-06 21:34 | 37.76000 | 13.56241 | 36996 ft | 401 kts | 330° |
| 2026-05-06 21:34 | 37.81344 | 13.54183 | 37006 ft | 402 kts | 331° |
| 2026-05-06 21:35 | 37.86695 | 13.52122 | 37007 ft | 402 kts | 331° |
| 2026-05-06 21:35 | 37.92059 | 13.50057 | 37029 ft | 403 kts | 331° |
| 2026-05-06 21:36 | 37.97430 | 13.47985 | 37030 ft | 404 kts | 331° |
| 2026-05-06 21:36 | 38.02822 | 13.45898 | 37019 ft | 405 kts | 331° |
| 2026-05-06 21:37 | 38.08222 | 13.43806 | 37009 ft | 407 kts | 331° |
| 2026-05-06 21:37 | 38.13635 | 13.41704 | 37027 ft | 407 kts | 331° |
| 2026-05-06 21:38 | 38.19030 | 13.39607 | 37012 ft | 409 kts | 332° |
| 2026-05-06 21:38 | 38.24475 | 13.37487 | 37010 ft | 410 kts | 332° |
| 2026-05-06 21:39 | 38.29931 | 13.35360 | 37014 ft | 410 kts | 332° |
| 2026-05-06 21:39 | 38.35393 | 13.33231 | 37009 ft | 411 kts | 332° |
| 2026-05-06 21:40 | 38.40890 | 13.31073 | 36999 ft | 415 kts | 333° |
| 2026-05-06 21:40 | 38.46429 | 13.28897 | 36990 ft | 418 kts | 333° |
| 2026-05-06 21:41 | 38.51999 | 13.26719 | 36990 ft | 419 kts | 333° |
| 2026-05-06 21:41 | 38.57578 | 13.24535 | 36997 ft | 420 kts | 333° |
| 2026-05-06 21:42 | 38.63169 | 13.22334 | 37006 ft | 422 kts | 334° |
| 2026-05-06 21:42 | 38.68756 | 13.20127 | 36989 ft | 424 kts | 334° |
| 2026-05-06 21:43 | 38.74408 | 13.17904 | 36994 ft | 426 kts | 334° |
| 2026-05-06 21:43 | 38.80072 | 13.15663 | 37006 ft | 427 kts | 334° |
| 2026-05-06 21:44 | 38.85756 | 13.13406 | 37026 ft | 428 kts | 335° |
| 2026-05-06 21:44 | 38.90539 | 13.11503 | 37002 ft | 431 kts | 335° |
| 2026-05-06 21:45 | 38.96291 | 13.09217 | 36996 ft | 434 kts | 335° |
| 2026-05-06 21:45 | 39.02033 | 13.06933 | 36996 ft | 435 kts | 335° |
| 2026-05-06 21:46 | 39.07834 | 13.04617 | 37036 ft | 437 kts | 336° |
| 2026-05-06 21:46 | 39.13649 | 13.02288 | 37008 ft | 439 kts | 336° |
| 2026-05-06 21:47 | 39.19499 | 12.99947 | 37004 ft | 441 kts | 336° |
| 2026-05-06 21:47 | 39.25372 | 12.97592 | 37011 ft | 442 kts | 336° |
| 2026-05-06 21:48 | 39.31251 | 12.95236 | 37045 ft | 443 kts | 336° |
| 2026-05-06 21:48 | 39.37153 | 12.92862 | 37027 ft | 445 kts | 336° |
| 2026-05-06 21:49 | 39.43063 | 12.90478 | 37027 ft | 446 kts | 336° |
| 2026-05-06 21:49 | 39.49000 | 12.88083 | 37030 ft | 447 kts | 336° |
| 2026-05-06 21:50 | 39.54931 | 12.85686 | 37057 ft | 447 kts | 336° |
| 2026-05-06 21:50 | 39.60883 | 12.83275 | 37045 ft | 448 kts | 336° |
| 2026-05-06 21:51 | 39.66839 | 12.80854 | 37040 ft | 449 kts | 336° |
| 2026-05-06 21:51 | 39.72808 | 12.78420 | 37039 ft | 450 kts | 336° |
| 2026-05-06 21:52 | 39.78785 | 12.75990 | 37048 ft | 451 kts | 336° |
| 2026-05-06 21:52 | 39.84781 | 12.73546 | 37040 ft | 452 kts | 336° |
| 2026-05-06 21:53 | 39.90783 | 12.71092 | 37037 ft | 452 kts | 336° |
| 2026-05-06 21:53 | 39.96751 | 12.68647 | 37040 ft | 453 kts | 336° |
| 2026-05-06 21:54 | 40.02768 | 12.66185 | 37036 ft | 453 kts | 336° |
| 2026-05-06 21:54 | 40.08784 | 12.63710 | 37043 ft | 453 kts | 336° |
| 2026-05-06 21:55 | 40.14801 | 12.61227 | 37043 ft | 453 kts | 336° |
| 2026-05-06 21:55 | 40.20819 | 12.58742 | 37045 ft | 454 kts | 336° |
| 2026-05-06 21:56 | 40.26839 | 12.56249 | 37062 ft | 454 kts | 336° |
| 2026-05-06 21:56 | 40.32862 | 12.53759 | 37047 ft | 454 kts | 336° |
| 2026-05-06 21:57 | 40.38885 | 12.51265 | 37046 ft | 454 kts | 336° |
| 2026-05-06 21:57 | 40.44910 | 12.48763 | 37044 ft | 454 kts | 336° |
| 2026-05-06 21:58 | 40.50934 | 12.46251 | 37042 ft | 455 kts | 336° |
| 2026-05-06 21:58 | 40.56965 | 12.43725 | 37038 ft | 455 kts | 336° |
| 2026-05-06 21:59 | 40.63001 | 12.41191 | 37037 ft | 455 kts | 336° |
| 2026-05-06 21:59 | 40.69042 | 12.38661 | 37060 ft | 456 kts | 337° |
| 2026-05-06 22:00 | 40.75088 | 12.36130 | 37019 ft | 456 kts | 337° |
| 2026-05-06 22:00 | 40.81139 | 12.33592 | 37022 ft | 457 kts | 337° |
| 2026-05-06 22:01 | 40.87198 | 12.31041 | 37026 ft | 458 kts | 338° |
| 2026-05-06 22:01 | 40.93449 | 12.29345 | 37034 ft | 463 kts | 345° |
| 2026-05-06 22:02 | 40.99840 | 12.27854 | 37034 ft | 464 kts | 345° |
| 2026-05-06 22:02 | 41.06154 | 12.26375 | 37028 ft | 464 kts | 345° |
| 2026-05-06 22:03 | 41.12520 | 12.24883 | 37061 ft | 464 kts | 345° |
| 2026-05-06 22:03 | 41.18883 | 12.23386 | 37049 ft | 465 kts | 345° |
| 2026-05-06 22:04 | 41.25250 | 12.21886 | 37042 ft | 465 kts | 345° |
| 2026-05-06 22:04 | 41.31621 | 12.20372 | 37038 ft | 465 kts | 345° |
| 2026-05-06 22:05 | 41.37988 | 12.18853 | 37045 ft | 465 kts | 345° |
| 2026-05-06 22:05 | 41.44351 | 12.17336 | 37039 ft | 465 kts | 345° |
| 2026-05-06 22:06 | 41.50742 | 12.15983 | 37038 ft | 468 kts | 351° |
| 2026-05-06 22:06 | 41.57243 | 12.15343 | 37043 ft | 468 kts | 351° |
| 2026-05-06 22:07 | 41.63682 | 12.14722 | 37032 ft | 467 kts | 351° |
| 2026-05-06 22:07 | 41.70162 | 12.14088 | 37028 ft | 467 kts | 351° |
| 2026-05-06 22:08 | 41.76646 | 12.13449 | 37045 ft | 467 kts | 350° |
| 2026-05-06 22:08 | 41.83129 | 12.12798 | 37033 ft | 467 kts | 350° |
| 2026-05-06 22:09 | 41.89607 | 12.12143 | 37027 ft | 467 kts | 350° |
| 2026-05-06 22:09 | 41.96087 | 12.11499 | 37025 ft | 467 kts | 350° |
| 2026-05-06 22:10 | 42.02566 | 12.10856 | 37035 ft | 467 kts | 350° |
| 2026-05-06 22:10 | 42.09050 | 12.10199 | 37029 ft | 467 kts | 350° |
| 2026-05-06 22:11 | 42.15540 | 12.09549 | 37032 ft | 468 kts | 350° |
| 2026-05-06 22:11 | 42.22030 | 12.08898 | 37040 ft | 468 kts | 350° |
| 2026-05-06 22:12 | 42.28516 | 12.08243 | 37041 ft | 468 kts | 350° |
| 2026-05-06 22:12 | 42.34967 | 12.07585 | 37041 ft | 468 kts | 350° |
| 2026-05-06 22:13 | 42.41462 | 12.06924 | 37059 ft | 468 kts | 349° |
| 2026-05-06 22:13 | 42.47951 | 12.06269 | 37046 ft | 468 kts | 350° |
| 2026-05-06 22:14 | 42.54448 | 12.05621 | 37048 ft | 468 kts | 350° |
| 2026-05-06 22:14 | 42.60944 | 12.04961 | 37058 ft | 468 kts | 349° |
| 2026-05-06 22:15 | 42.67397 | 12.04021 | 37052 ft | 465 kts | 346° |
| 2026-05-06 22:15 | 42.73789 | 12.02705 | 37038 ft | 465 kts | 345° |
| 2026-05-06 22:16 | 42.80183 | 12.01352 | 37045 ft | 465 kts | 345° |
| 2026-05-06 22:16 | 42.86607 | 12.00101 | 37035 ft | 467 kts | 346° |
| 2026-05-06 22:17 | 42.93044 | 11.98912 | 37030 ft | 467 kts | 346° |
| 2026-05-06 22:17 | 42.99484 | 11.97706 | 37026 ft | 467 kts | 346° |
| 2026-05-06 22:18 | 43.05881 | 11.96478 | 37038 ft | 467 kts | 346° |
| 2026-05-06 22:18 | 43.12310 | 11.95223 | 37034 ft | 467 kts | 346° |
| 2026-05-06 22:19 | 43.18744 | 11.93966 | 37029 ft | 467 kts | 346° |
| 2026-05-06 22:19 | 43.25178 | 11.92712 | 37038 ft | 467 kts | 346° |
| 2026-05-06 22:20 | 43.31621 | 11.91462 | 37027 ft | 468 kts | 346° |
| 2026-05-06 22:20 | 43.38066 | 11.90218 | 37025 ft | 468 kts | 346° |
| 2026-05-06 22:21 | 43.44516 | 11.88965 | 37034 ft | 468 kts | 346° |
| 2026-05-06 22:21 | 43.50960 | 11.87697 | 37027 ft | 468 kts | 346° |
| 2026-05-06 22:22 | 43.57405 | 11.86430 | 37024 ft | 468 kts | 346° |
| 2026-05-06 22:22 | 43.63815 | 11.85184 | 37037 ft | 468 kts | 346° |
| 2026-05-06 22:23 | 43.70265 | 11.83925 | 37029 ft | 468 kts | 346° |
| 2026-05-06 22:23 | 43.76719 | 11.82656 | 37026 ft | 468 kts | 346° |
| 2026-05-06 22:24 | 43.83169 | 11.81377 | 37008 ft | 470 kts | 345° |
| 2026-05-06 22:24 | 43.89643 | 11.80098 | 36987 ft | 470 kts | 346° |
| 2026-05-06 22:25 | 43.96136 | 11.78816 | 36975 ft | 472 kts | 345° |
| 2026-05-06 22:25 | 44.02644 | 11.77527 | 37005 ft | 473 kts | 345° |
| 2026-05-06 22:26 | 44.09175 | 11.76237 | 36964 ft | 475 kts | 345° |
| 2026-05-06 22:26 | 44.15729 | 11.74937 | 36960 ft | 476 kts | 345° |
| 2026-05-06 22:27 | 44.22298 | 11.73625 | 36960 ft | 477 kts | 345° |
| 2026-05-06 22:27 | 44.28877 | 11.72303 | 36966 ft | 478 kts | 345° |
| 2026-05-06 22:28 | 44.35460 | 11.70985 | 36979 ft | 478 kts | 345° |
| 2026-05-06 22:28 | 44.41998 | 11.69656 | 36977 ft | 478 kts | 345° |
| 2026-05-06 22:29 | 44.48576 | 11.68313 | 36972 ft | 477 kts | 345° |
| 2026-05-06 22:29 | 44.55146 | 11.66984 | 36967 ft | 477 kts | 345° |
| 2026-05-06 22:30 | 44.61722 | 11.65652 | 36956 ft | 477 kts | 346° |
| 2026-05-06 22:30 | 44.68283 | 11.64329 | 36976 ft | 476 kts | 346° |
| 2026-05-06 22:31 | 44.74826 | 11.62998 | 36975 ft | 474 kts | 346° |
| 2026-05-06 22:31 | 44.81347 | 11.61662 | 36984 ft | 473 kts | 346° |
| 2026-05-06 22:32 | 44.87880 | 11.60432 | 36971 ft | 474 kts | 347° |
| 2026-05-06 22:32 | 44.94431 | 11.59345 | 36967 ft | 474 kts | 347° |
| 2026-05-06 22:33 | 45.00980 | 11.58258 | 36976 ft | 474 kts | 347° |
| 2026-05-06 22:33 | 45.07531 | 11.57113 | 36959 ft | 475 kts | 347° |
| 2026-05-06 22:34 | 45.14095 | 11.55951 | 36961 ft | 476 kts | 347° |
| 2026-05-06 22:34 | 45.20678 | 11.54790 | 36957 ft | 477 kts | 347° |
| 2026-05-06 22:35 | 45.27274 | 11.53630 | 36955 ft | 478 kts | 347° |
| 2026-05-06 22:35 | 45.33879 | 11.52473 | 36952 ft | 478 kts | 347° |
| 2026-05-06 22:36 | 45.39368 | 11.51508 | 36955 ft | 479 kts | 347° |
| 2026-05-06 22:36 | 45.45979 | 11.50324 | 36958 ft | 478 kts | 347° |
| 2026-05-06 22:37 | 45.52581 | 11.49151 | 36957 ft | 478 kts | 347° |
| 2026-05-06 22:37 | 45.59182 | 11.47994 | 36981 ft | 478 kts | 347° |
| 2026-05-06 22:38 | 45.65780 | 11.46820 | 36969 ft | 478 kts | 347° |
| 2026-05-06 22:38 | 45.72376 | 11.45641 | 36970 ft | 478 kts | 347° |
| 2026-05-06 22:39 | 45.78979 | 11.44451 | 36978 ft | 478 kts | 347° |
| 2026-05-06 22:39 | 45.85582 | 11.43257 | 36982 ft | 478 kts | 347° |
| 2026-05-06 22:40 | 45.92183 | 11.42067 | 36988 ft | 478 kts | 347° |
| 2026-05-06 22:40 | 45.98792 | 11.40878 | 36988 ft | 479 kts | 348° |
| 2026-05-06 22:41 | 46.08702 | 11.39088 | 36993 ft | 479 kts | 348° |
| 2026-05-06 22:42 | 46.15306 | 11.37892 | 36987 ft | 479 kts | 348° |
| 2026-05-06 22:42 | 46.21915 | 11.36697 | 36977 ft | 478 kts | 348° |
| 2026-05-06 22:43 | 46.28479 | 11.35500 | 36978 ft | 479 kts | 347° |
| 2026-05-06 22:43 | 46.35082 | 11.34284 | 36976 ft | 479 kts | 348° |
| 2026-05-06 22:44 | 46.41691 | 11.33077 | 36974 ft | 478 kts | 348° |
| 2026-05-06 22:44 | 46.48341 | 11.32415 | 36958 ft | 483 kts | 0° |
| 2026-05-06 22:45 | 46.55041 | 11.33119 | 36952 ft | 482 kts | 0° |
| 2026-05-06 22:45 | 46.61737 | 11.33801 | 36949 ft | 482 kts | 0° |
| 2026-05-06 22:46 | 46.68432 | 11.34482 | 36962 ft | 482 kts | 1° |
| 2026-05-06 22:46 | 46.75127 | 11.35180 | 36980 ft | 482 kts | 0° |
| 2026-05-06 22:47 | 46.81816 | 11.35883 | 36972 ft | 482 kts | 1° |
| 2026-05-06 22:47 | 46.88499 | 11.36607 | 36963 ft | 481 kts | 1° |
| 2026-05-06 22:48 | 46.95171 | 11.37340 | 36954 ft | 480 kts | 1° |
| 2026-05-06 22:48 | 47.01831 | 11.37881 | 36953 ft | 478 kts | 358° |
| 2026-05-06 22:49 | 47.08479 | 11.37794 | 36946 ft | 477 kts | 355° |
| 2026-05-06 22:49 | 47.15125 | 11.37521 | 36919 ft | 478 kts | 355° |
| 2026-05-06 22:50 | 47.21780 | 11.37374 | 36924 ft | 478 kts | 356° |
| 2026-05-06 22:50 | 47.28445 | 11.37336 | 36942 ft | 479 kts | 357° |
| 2026-05-06 22:51 | 47.35069 | 11.37309 | 36942 ft | 479 kts | 356° |
| 2026-05-06 22:51 | 47.41730 | 11.37247 | 36936 ft | 479 kts | 356° |
| 2026-05-06 22:52 | 47.48386 | 11.37181 | 36944 ft | 479 kts | 356° |
| 2026-05-06 22:52 | 47.55059 | 11.37119 | 36944 ft | 479 kts | 356° |
| 2026-05-06 22:53 | 47.61734 | 11.37041 | 36989 ft | 480 kts | 356° |
| 2026-05-06 22:53 | 47.68409 | 11.36970 | 36981 ft | 479 kts | 357° |
| 2026-05-06 22:54 | 47.75082 | 11.36908 | 36973 ft | 480 kts | 357° |
| 2026-05-06 22:54 | 47.81767 | 11.36840 | 36964 ft | 480 kts | 357° |
| 2026-05-06 22:55 | 47.88454 | 11.36706 | 36969 ft | 480 kts | 355° |
| 2026-05-06 22:55 | 47.95128 | 11.36178 | 36959 ft | 480 kts | 353° |
| 2026-05-06 22:56 | 48.01796 | 11.35491 | 36959 ft | 481 kts | 353° |
| 2026-05-06 22:56 | 48.08479 | 11.34868 | 36959 ft | 481 kts | 354° |
| 2026-05-06 22:57 | 48.15173 | 11.34331 | 36962 ft | 482 kts | 354° |
| 2026-05-06 22:57 | 48.21877 | 11.33811 | 36958 ft | 482 kts | 354° |
| 2026-05-06 22:58 | 48.28585 | 11.33255 | 36955 ft | 483 kts | 354° |
| 2026-05-06 22:58 | 48.35292 | 11.32681 | 36952 ft | 483 kts | 354° |
| 2026-05-06 22:59 | 48.41964 | 11.32125 | 36944 ft | 483 kts | 354° |
| 2026-05-06 22:59 | 48.48684 | 11.31573 | 36946 ft | 483 kts | 354° |
| 2026-05-06 23:00 | 48.55395 | 11.31002 | 36940 ft | 483 kts | 354° |
| 2026-05-06 23:00 | 48.62104 | 11.30428 | 36928 ft | 482 kts | 354° |
| 2026-05-06 23:01 | 48.68811 | 11.29857 | 36933 ft | 483 kts | 354° |
| 2026-05-06 23:01 | 48.75518 | 11.29285 | 36936 ft | 483 kts | 354° |
| 2026-05-06 23:02 | 48.82236 | 11.28711 | 36935 ft | 483 kts | 354° |
| 2026-05-06 23:02 | 48.88951 | 11.28144 | 36929 ft | 483 kts | 354° |
| 2026-05-06 23:03 | 48.95667 | 11.27576 | 36934 ft | 483 kts | 354° |
| 2026-05-06 23:03 | 49.02383 | 11.26991 | 36935 ft | 483 kts | 354° |
| 2026-05-06 23:04 | 49.09098 | 11.26416 | 36928 ft | 483 kts | 354° |
| 2026-05-06 23:04 | 49.15812 | 11.25840 | 36919 ft | 483 kts | 354° |
| 2026-05-06 23:05 | 49.22525 | 11.25252 | 36919 ft | 483 kts | 354° |
| 2026-05-06 23:05 | 49.29188 | 11.24677 | 36917 ft | 483 kts | 354° |
| 2026-05-06 23:06 | 49.35901 | 11.24095 | 36915 ft | 483 kts | 354° |
| 2026-05-06 23:06 | 49.42605 | 11.23496 | 36920 ft | 483 kts | 354° |
| 2026-05-06 23:07 | 49.49296 | 11.22906 | 36900 ft | 479 kts | 354° |
| 2026-05-06 23:07 | 49.55943 | 11.22354 | 36898 ft | 479 kts | 355° |
| 2026-05-06 23:08 | 49.62615 | 11.22204 | 36898 ft | 480 kts | 358° |
| 2026-05-06 23:08 | 49.69301 | 11.22363 | 36901 ft | 480 kts | 359° |
| 2026-05-06 23:09 | 49.75980 | 11.22418 | 36901 ft | 479 kts | 353° |
| 2026-05-06 23:09 | 49.82503 | 11.20648 | 36882 ft | 475 kts | 345° |
| 2026-05-06 23:10 | 49.88972 | 11.18540 | 36897 ft | 475 kts | 345° |
| 2026-05-06 23:10 | 49.95448 | 11.16469 | 36893 ft | 475 kts | 345° |
| 2026-05-06 23:11 | 50.01888 | 11.14401 | 36881 ft | 475 kts | 345° |
| 2026-05-06 23:11 | 50.08368 | 11.12299 | 36877 ft | 475 kts | 345° |
| 2026-05-06 23:12 | 50.14837 | 11.10189 | 36877 ft | 475 kts | 345° |
| 2026-05-06 23:12 | 50.21309 | 11.08070 | 36880 ft | 475 kts | 345° |
| 2026-05-06 23:13 | 50.27769 | 11.05942 | 36886 ft | 474 kts | 345° |
| 2026-05-06 23:13 | 50.34222 | 11.03827 | 36879 ft | 474 kts | 346° |
| 2026-05-06 23:14 | 50.40666 | 11.01716 | 36878 ft | 473 kts | 345° |
| 2026-05-06 23:14 | 50.43413 | 11.00812 | 36872 ft | 472 kts | 348° |
| 2026-05-06 23:14 | 50.45378 | 11.00428 | 36290 ft | 476 kts | 1° |
| 2026-05-06 23:15 | 50.48545 | 11.00807 | 36936 ft | 444 kts | 5° |
| 2026-05-06 23:15 | 50.54630 | 11.00689 | 37028 ft | 441 kts | 338° |
| 2026-05-06 23:16 | 50.60311 | 10.96838 | 37025 ft | 451 kts | 332° |
| 2026-05-06 23:16 | 50.66200 | 10.93039 | 37023 ft | 465 kts | 340° |
| 2026-05-06 23:17 | 50.72534 | 10.90638 | 37018 ft | 470 kts | 347° |
| 2026-05-06 23:17 | 50.78984 | 10.88831 | 37019 ft | 471 kts | 347° |
| 2026-05-06 23:18 | 50.85430 | 10.86898 | 37015 ft | 471 kts | 346° |
| 2026-05-06 23:18 | 50.91833 | 10.84734 | 36927 ft | 471 kts | 345° |
| 2026-05-06 23:18 | 50.95030 | 10.83621 | 36796 ft | 469 kts | 345° |
| 2026-05-06 23:19 | 50.98220 | 10.82513 | 36846 ft | 470 kts | 345° |
| 2026-05-06 23:19 | 51.04620 | 10.80316 | 36828 ft | 470 kts | 345° |
| 2026-05-06 23:20 | 51.11021 | 10.78151 | 36837 ft | 470 kts | 345° |
| 2026-05-06 23:20 | 51.17413 | 10.75984 | 36839 ft | 470 kts | 345° |
| 2026-05-06 23:21 | 51.23803 | 10.73805 | 36839 ft | 470 kts | 345° |
| 2026-05-06 23:21 | 51.30194 | 10.71616 | 36858 ft | 470 kts | 345° |
| 2026-05-06 23:22 | 51.36585 | 10.69418 | 36872 ft | 470 kts | 345° |
| 2026-05-06 23:22 | 51.42978 | 10.67218 | 36861 ft | 469 kts | 345° |
| 2026-05-06 23:23 | 51.49361 | 10.65018 | 36860 ft | 469 kts | 345° |
| 2026-05-06 23:23 | 51.55688 | 10.62741 | 36885 ft | 468 kts | 343° |
| 2026-05-06 23:24 | 51.61929 | 10.59868 | 36880 ft | 465 kts | 340° |
| 2026-05-06 23:24 | 51.68092 | 10.56730 | 36876 ft | 464 kts | 340° |
| 2026-05-06 23:25 | 51.74259 | 10.53668 | 36870 ft | 464 kts | 340° |
| 2026-05-06 23:25 | 51.80449 | 10.50711 | 36872 ft | 464 kts | 341° |
| 2026-05-06 23:26 | 51.85599 | 10.48265 | 36879 ft | 464 kts | 340° |
| 2026-05-06 23:26 | 51.91779 | 10.45296 | 36878 ft | 463 kts | 340° |
| 2026-05-06 23:27 | 51.97955 | 10.42312 | 36877 ft | 463 kts | 340° |
| 2026-05-06 23:27 | 52.04129 | 10.39315 | 36891 ft | 463 kts | 340° |
| 2026-05-06 23:28 | 52.10295 | 10.36318 | 36905 ft | 462 kts | 340° |
| 2026-05-06 23:28 | 52.16459 | 10.33306 | 36919 ft | 462 kts | 340° |
| 2026-05-06 23:29 | 52.22606 | 10.30295 | 36905 ft | 461 kts | 340° |
| 2026-05-06 23:29 | 52.28751 | 10.27284 | 36902 ft | 461 kts | 340° |
| 2026-05-06 23:30 | 52.34894 | 10.24262 | 36920 ft | 461 kts | 340° |
| 2026-05-06 23:30 | 52.41024 | 10.21233 | 36918 ft | 460 kts | 340° |
| 2026-05-06 23:31 | 52.47118 | 10.18219 | 36931 ft | 460 kts | 340° |
| 2026-05-06 23:31 | 52.53239 | 10.15182 | 36935 ft | 460 kts | 340° |
| 2026-05-06 23:32 | 52.59356 | 10.12126 | 36948 ft | 459 kts | 340° |
| 2026-05-06 23:32 | 52.65468 | 10.09076 | 36943 ft | 459 kts | 340° |
| 2026-05-06 23:33 | 52.71578 | 10.06021 | 36949 ft | 458 kts | 340° |
| 2026-05-06 23:33 | 52.77678 | 10.02960 | 36945 ft | 458 kts | 340° |
| 2026-05-06 23:34 | 52.83762 | 9.99895 | 36954 ft | 457 kts | 340° |
| 2026-05-06 23:34 | 52.89840 | 9.96826 | 36946 ft | 456 kts | 340° |
| 2026-05-06 23:35 | 52.95911 | 9.93746 | 36945 ft | 456 kts | 340° |
| 2026-05-06 23:35 | 53.01983 | 9.90663 | 36942 ft | 456 kts | 340° |
| 2026-05-06 23:36 | 53.08047 | 9.87577 | 36940 ft | 456 kts | 340° |
| 2026-05-06 23:36 | 53.14109 | 9.84478 | 36946 ft | 456 kts | 340° |
| 2026-05-06 23:37 | 53.20130 | 9.81384 | 36947 ft | 456 kts | 340° |
| 2026-05-06 23:37 | 53.26186 | 9.78263 | 36947 ft | 456 kts | 340° |
| 2026-05-06 23:38 | 53.32242 | 9.75143 | 36949 ft | 456 kts | 340° |
| 2026-05-06 23:38 | 53.38300 | 9.72011 | 36965 ft | 455 kts | 340° |
| 2026-05-06 23:39 | 53.44354 | 9.68865 | 36968 ft | 455 kts | 340° |
| 2026-05-06 23:39 | 53.50402 | 9.65709 | 36966 ft | 455 kts | 340° |
| 2026-05-06 23:40 | 53.56452 | 9.62555 | 36962 ft | 455 kts | 340° |
| 2026-05-06 23:40 | 53.62501 | 9.59394 | 36972 ft | 455 kts | 340° |
| 2026-05-06 23:41 | 53.68698 | 9.57132 | 36970 ft | 458 kts | 349° |
| 2026-05-06 23:41 | 53.74968 | 9.55679 | 36968 ft | 458 kts | 349° |
| 2026-05-06 23:42 | 53.81271 | 9.54216 | 36978 ft | 457 kts | 349° |
| 2026-05-06 23:42 | 53.87564 | 9.52746 | 36954 ft | 455 kts | 349° |
| 2026-05-06 23:42 | 53.90714 | 9.52007 | 35900 ft | 460 kts | 349° |
| 2026-05-06 23:43 | 53.93914 | 9.51251 | 34623 ft | 466 kts | 349° |
| 2026-05-06 23:43 | 53.97108 | 9.50501 | 33663 ft | 461 kts | 349° |
| 2026-05-06 23:43 | 54.00284 | 9.50139 | 32695 ft | 457 kts | 359° |
| 2026-05-06 23:43 | 54.03400 | 9.50688 | 32148 ft | 444 kts | 8° |
| 2026-05-06 23:44 | 54.06393 | 9.51660 | 31661 ft | 429 kts | 8° |
| 2026-05-06 23:44 | 54.09279 | 9.52584 | 31181 ft | 416 kts | 8° |
| 2026-05-06 23:44 | 54.12081 | 9.53475 | 30730 ft | 404 kts | 8° |
| 2026-05-06 23:44 | 54.14807 | 9.54346 | 30290 ft | 394 kts | 8° |
| 2026-05-06 23:45 | 54.17475 | 9.55201 | 29825 ft | 390 kts | 8° |
| 2026-05-06 23:45 | 54.20145 | 9.56054 | 29374 ft | 389 kts | 8° |
| 2026-05-06 23:45 | 54.22799 | 9.56907 | 28977 ft | 387 kts | 8° |
| 2026-05-06 23:45 | 54.25436 | 9.57765 | 28555 ft | 385 kts | 8° |
| 2026-05-06 23:46 | 54.28087 | 9.58630 | 27382 ft | 392 kts | 8° |
| 2026-05-06 23:46 | 54.30775 | 9.59511 | 26462 ft | 394 kts | 8° |
| 2026-05-06 23:46 | 54.33452 | 9.60391 | 25675 ft | 390 kts | 8° |
| 2026-05-06 23:46 | 54.36108 | 9.61266 | 24936 ft | 386 kts | 8° |
| 2026-05-06 23:47 | 54.38696 | 9.62115 | 24241 ft | 382 kts | 8° |
| 2026-05-06 23:47 | 54.41292 | 9.62963 | 23542 ft | 378 kts | 7° |
| 2026-05-06 23:47 | 54.43855 | 9.63799 | 22732 ft | 373 kts | 8° |
| 2026-05-06 23:47 | 54.46388 | 9.64625 | 21959 ft | 368 kts | 8° |
| 2026-05-06 23:48 | 54.48887 | 9.65441 | 21215 ft | 363 kts | 8° |
| 2026-05-06 23:48 | 54.51350 | 9.66245 | 20495 ft | 358 kts | 8° |
| 2026-05-06 23:48 | 54.53781 | 9.67036 | 19792 ft | 353 kts | 8° |
| 2026-05-06 23:48 | 54.56180 | 9.67800 | 19103 ft | 348 kts | 8° |
| 2026-05-06 23:49 | 54.58550 | 9.68543 | 18435 ft | 344 kts | 8° |
| 2026-05-06 23:49 | 54.60892 | 9.69278 | 17699 ft | 339 kts | 8° |
| 2026-05-06 23:49 | 54.63200 | 9.70008 | 16979 ft | 335 kts | 8° |
| 2026-05-06 23:49 | 54.65481 | 9.70728 | 16266 ft | 331 kts | 8° |
| 2026-05-06 23:50 | 54.67742 | 9.71369 | 15586 ft | 327 kts | 7° |
| 2026-05-06 23:50 | 54.72195 | 9.72482 | 14281 ft | 320 kts | 6° |
| 2026-05-06 23:50 | 54.74384 | 9.73016 | 13690 ft | 316 kts | 6° |
| 2026-05-06 23:51 | 54.76559 | 9.73556 | 13260 ft | 316 kts | 7° |
| 2026-05-06 23:51 | 54.78737 | 9.74103 | 12854 ft | 316 kts | 7° |
| 2026-05-06 23:51 | 54.80908 | 9.74648 | 12458 ft | 314 kts | 5° |
| 2026-05-06 23:51 | 54.83078 | 9.74797 | 12065 ft | 311 kts | 355° |
| 2026-05-06 23:52 | 54.85212 | 9.74346 | 11683 ft | 308 kts | 349° |
| 2026-05-06 23:52 | 54.87332 | 9.73801 | 11302 ft | 307 kts | 350° |
| 2026-05-06 23:52 | 54.89441 | 9.73272 | 10931 ft | 306 kts | 351° |
| 2026-05-06 23:52 | 54.91542 | 9.72754 | 10553 ft | 304 kts | 351° |
| 2026-05-06 23:53 | 54.93633 | 9.72238 | 10188 ft | 303 kts | 350° |
| 2026-05-06 23:53 | 54.95718 | 9.71721 | 9818 ft | 302 kts | 350° |
| 2026-05-06 23:53 | 54.97794 | 9.71206 | 9405 ft | 300 kts | 351° |
| 2026-05-06 23:53 | 54.99833 | 9.70692 | 9006 ft | 299 kts | 351° |
| 2026-05-06 23:54 | 55.01884 | 9.70169 | 8604 ft | 298 kts | 351° |
| 2026-05-06 23:54 | 55.03927 | 9.69648 | 8210 ft | 296 kts | 351° |
| 2026-05-06 23:54 | 55.05961 | 9.69130 | 7905 ft | 292 kts | 352° |
| 2026-05-06 23:54 | 55.07948 | 9.68629 | 7672 ft | 286 kts | 352° |
| 2026-05-06 23:55 | 55.09897 | 9.68136 | 7441 ft | 280 kts | 352° |
| 2026-05-06 23:55 | 55.11806 | 9.67653 | 7212 ft | 275 kts | 353° |
| 2026-05-06 23:55 | 55.13682 | 9.67175 | 6985 ft | 271 kts | 353° |
| 2026-05-06 23:55 | 55.15544 | 9.66704 | 6762 ft | 271 kts | 352° |
| 2026-05-06 23:56 | 55.17406 | 9.66232 | 6540 ft | 270 kts | 352° |
| 2026-05-06 23:56 | 55.19263 | 9.65757 | 6333 ft | 269 kts | 352° |
| 2026-05-06 23:56 | 55.21110 | 9.65283 | 6149 ft | 269 kts | 353° |
| 2026-05-06 23:56 | 55.22962 | 9.64804 | 5959 ft | 268 kts | 352° |
| 2026-05-06 23:57 | 55.24809 | 9.64362 | 5778 ft | 268 kts | 354° |
| 2026-05-06 23:57 | 55.26647 | 9.64032 | 5592 ft | 262 kts | 356° |
| 2026-05-06 23:57 | 55.28442 | 9.63758 | 5413 ft | 256 kts | 356° |
| 2026-05-06 23:57 | 55.30197 | 9.63500 | 5232 ft | 250 kts | 356° |
| 2026-05-06 23:58 | 55.31911 | 9.63245 | 5052 ft | 244 kts | 356° |
| 2026-05-06 23:58 | 55.33582 | 9.62992 | 4867 ft | 238 kts | 356° |
| 2026-05-06 23:58 | 55.35218 | 9.62738 | 4689 ft | 234 kts | 356° |
| 2026-05-06 23:58 | 55.36816 | 9.62484 | 4519 ft | 233 kts | 356° |
| 2026-05-06 23:59 | 55.38430 | 9.62224 | 4414 ft | 233 kts | 356° |
| 2026-05-06 23:59 | 55.40044 | 9.61968 | 4312 ft | 233 kts | 356° |
| 2026-05-06 23:59 | 55.41658 | 9.61715 | 4203 ft | 233 kts | 355° |
| 2026-05-06 23:59 | 55.43270 | 9.61460 | 4099 ft | 233 kts | 355° |
| 2026-05-07 00:00 | 55.44883 | 9.61203 | 3995 ft | 233 kts | 356° |
| 2026-05-07 00:00 | 55.46551 | 9.60938 | 3909 ft | 254 kts | 356° |
| 2026-05-07 00:00 | 55.48345 | 9.60655 | 3793 ft | 262 kts | 355° |
| 2026-05-07 00:00 | 55.49550 | 9.60462 | 3723 ft | 263 kts | 355° |
| 2026-05-07 00:01 | 55.51985 | 9.60070 | 3588 ft | 262 kts | 356° |
| 2026-05-07 00:01 | 55.53804 | 9.59776 | 3486 ft | 262 kts | 355° |
| 2026-05-07 00:01 | 55.55619 | 9.59480 | 3383 ft | 262 kts | 355° |
| 2026-05-07 00:01 | 55.57429 | 9.59184 | 3280 ft | 261 kts | 355° |
| 2026-05-07 00:02 | 55.59238 | 9.58891 | 3172 ft | 261 kts | 355° |
| 2026-05-07 00:02 | 55.61049 | 9.58600 | 3047 ft | 261 kts | 355° |
| 2026-05-07 00:02 | 55.62846 | 9.58311 | 3017 ft | 254 kts | 355° |
| 2026-05-07 00:02 | 55.64559 | 9.58033 | 3017 ft | 240 kts | 355° |
| 2026-05-07 00:03 | 55.66164 | 9.57724 | 3018 ft | 225 kts | 349° |
| 2026-05-07 00:03 | 55.67620 | 9.56902 | 3021 ft | 217 kts | 337° |
| 2026-05-07 00:03 | 55.69010 | 9.55852 | 3021 ft | 217 kts | 337° |
| 2026-05-07 00:03 | 55.70402 | 9.54814 | 3022 ft | 217 kts | 338° |
| 2026-05-07 00:04 | 55.71793 | 9.53781 | 3023 ft | 215 kts | 338° |
| 2026-05-07 00:04 | 55.73102 | 9.52807 | 3042 ft | 198 kts | 337° |
| 2026-05-07 00:04 | 55.74198 | 9.51570 | 3023 ft | 179 kts | 314° |
| 2026-05-07 00:04 | 55.74832 | 9.49808 | 3010 ft | 163 kts | 289° |
| 2026-05-07 00:05 | 55.75005 | 9.47865 | 3023 ft | 164 kts | 266° |
| 2026-05-07 00:05 | 55.74937 | 9.45679 | 3045 ft | 185 kts | 266° |
| 2026-05-07 00:05 | 55.74868 | 9.43367 | 3034 ft | 189 kts | 266° |
| 2026-05-07 00:05 | 55.74799 | 9.41033 | 2942 ft | 191 kts | 266° |
| 2026-05-07 00:06 | 55.74730 | 9.38705 | 2662 ft | 183 kts | 266° |
| 2026-05-07 00:06 | 55.74667 | 9.36521 | 2407 ft | 170 kts | 266° |
| 2026-05-07 00:06 | 55.74608 | 9.34515 | 2175 ft | 157 kts | 266° |
| 2026-05-07 00:06 | 55.74553 | 9.32621 | 1963 ft | 151 kts | 265° |
| 2026-05-07 00:07 | 55.74499 | 9.30779 | 1762 ft | 149 kts | 265° |
| 2026-05-07 00:07 | 55.74445 | 9.28950 | 1552 ft | 148 kts | 266° |
| 2026-05-07 00:07 | 55.74392 | 9.27136 | 1352 ft | 147 kts | 266° |
| 2026-05-07 00:07 | 55.74337 | 9.25326 | 1118 ft | 147 kts | 266° |
| 2026-05-07 00:08 | 55.74283 | 9.23525 | 860 ft | 146 kts | 268° |
| 2026-05-07 00:08 | 55.74226 | 9.21727 | 635 ft | 145 kts | 267° |
| 2026-05-07 00:08 | 55.74170 | 9.19939 | 477 ft | 145 kts | 268° |
| 2026-05-07 00:08 | 55.74121 | 9.18153 | 310 ft | 145 kts | 268° |
| 2026-05-07 00:09 | 55.74075 | 9.16455 | 216 ft | 114 kts | 266° |
| 2026-05-07 00:09 | 55.74047 | 9.15547 | 216 ft | 48 kts | 267° |
| 2026-05-07 00:09 | 55.74034 | 9.15015 | 220 ft | 40 kts | 266° |
| 2026-05-07 00:09 | 55.74020 | 9.14661 | 225 ft | 20 kts | 267° |
| 2026-05-07 00:10 | 55.74044 | 9.14506 | 216 ft | 11 kts | 330° |
| 2026-05-07 00:10 | 55.74131 | 9.14490 | 216 ft | 14 kts | 358° |
| 2026-05-07 00:10 | 55.74229 | 9.14481 | 220 ft | 15 kts | 356° |
| 2026-05-07 00:10 | 55.74329 | 9.14471 | 216 ft | 14 kts | 358° |
| 2026-05-07 00:11 | 55.74407 | 9.14467 | 218 ft | 9 kts | 6° |
| 2026-05-07 00:11 | 55.74440 | 9.14553 | 220 ft | 10 kts | 85° |
| 2026-05-07 00:11 | 55.74464 | 9.14621 | 219 ft | 7 kts | 12° |
| 2026-05-07 00:11 | 55.74514 | 9.14620 | 220 ft | 4 kts | 357° |
| 2026-05-07 00:12 | 55.74526 | 9.14619 | 220 ft | 2 kts | 357° |
| 2026-05-07 00:12 | 55.74527 | 9.14618 | 219 ft | 0 kts | 357° |